createdAt,value
2018-06-08T00:01:03.954Z,64.40
2018-06-08T00:03:31.893Z,65.40
2018-06-08T00:05:59.454Z,65.80
2018-06-08T00:08:27.019Z,64.60
2018-06-08T00:10:54.608Z,64.10
2018-06-08T00:13:22.176Z,65.40
2018-06-08T00:15:49.880Z,64.40
2018-06-08T00:18:17.435Z,63.80
2018-06-08T00:20:45.100Z,65.80
2018-06-08T00:23:12.636Z,64.60
2018-06-08T00:25:40.198Z,65.30
2018-06-08T00:28:07.776Z,64.20
2018-06-08T00:30:35.337Z,66.30
2018-06-08T00:33:02.997Z,66.50
2018-06-08T00:35:30.634Z,65.00
2018-06-08T00:37:58.189Z,66.60
2018-06-08T00:40:25.761Z,66.40
2018-06-08T00:42:53.416Z,67.10
2018-06-08T00:45:21.001Z,65.70
2018-06-08T00:47:48.550Z,64.90
2018-06-08T00:50:16.105Z,65.70
2018-06-08T00:52:43.673Z,67.10
2018-06-08T00:55:11.214Z,67.00
2018-06-08T00:57:38.759Z,66.30
2018-06-08T01:00:06.513Z,66.30
2018-06-08T01:02:34.128Z,66.40
2018-06-08T01:05:01.692Z,65.80
2018-06-08T01:07:29.259Z,67.10
2018-06-08T01:09:57.701Z,65.40
2018-06-08T01:12:25.336Z,66.20
2018-06-08T01:14:52.974Z,65.90
2018-06-08T01:17:20.591Z,66.20
2018-06-08T01:19:48.253Z,65.40
2018-06-08T01:22:15.837Z,65.20
2018-06-08T01:24:43.470Z,65.40
2018-06-08T01:27:11.082Z,65.60
2018-06-08T01:29:38.634Z,65.60
2018-06-08T01:32:06.205Z,66.20
2018-06-08T01:34:33.808Z,66.40
2018-06-08T01:37:01.478Z,66.40
2018-06-08T01:39:29.068Z,64.60
2018-06-08T01:41:56.697Z,65.60
2018-06-08T01:44:24.250Z,66.30
2018-06-08T01:46:51.817Z,67.60
2018-06-08T01:49:19.389Z,66.90
2018-06-08T01:51:46.941Z,66.00
2018-06-08T01:54:14.478Z,66.20
2018-06-08T01:56:42.038Z,67.00
2018-06-08T01:59:09.703Z,66.80
2018-06-08T02:01:37.278Z,67.20
2018-06-08T02:04:04.855Z,67.10
2018-06-08T02:06:32.432Z,65.90
2018-06-08T02:08:59.993Z,66.40
2018-06-08T02:11:27.625Z,66.00
2018-06-08T02:13:55.168Z,67.10
2018-06-08T02:16:22.745Z,66.50
2018-06-08T02:21:17.845Z,67.20
2018-06-08T02:23:45.421Z,67.00
2018-06-08T02:28:40.526Z,67.10
2018-06-08T02:31:08.060Z,67.30
2018-06-08T02:33:35.620Z,67.00
2018-06-08T02:36:03.294Z,68.00
2018-06-08T02:38:30.859Z,67.80
2018-06-08T02:40:58.415Z,68.00
2018-06-08T02:43:25.986Z,68.10
2018-06-08T02:45:53.542Z,68.70
2018-06-08T02:48:21.150Z,69.00
2018-06-08T02:50:48.675Z,67.80
2018-06-08T02:53:16.265Z,69.30
2018-06-08T02:55:43.804Z,67.50
2018-06-08T03:00:39.499Z,67.90
2018-06-08T03:03:07.169Z,69.00
2018-06-08T03:05:34.752Z,69.30
2018-06-08T03:12:57.409Z,68.40
2018-06-08T03:17:52.538Z,67.80
2018-06-08T03:20:20.078Z,69.40
2018-06-08T03:22:47.666Z,68.90
2018-06-08T03:25:15.205Z,68.30
2018-06-08T03:27:42.777Z,70.00
2018-06-08T03:32:37.897Z,67.90
2018-06-08T03:35:05.521Z,67.70
2018-06-08T03:37:33.100Z,67.80
2018-06-08T03:40:00.634Z,67.90
2018-06-08T03:42:28.217Z,68.20
2018-06-08T03:44:55.777Z,69.00
2018-06-08T03:47:23.346Z,68.20
2018-06-08T03:49:50.976Z,69.50
2018-06-08T03:52:18.636Z,69.70
2018-06-08T03:54:46.229Z,70.10
2018-06-08T03:59:41.414Z,70.00
2018-06-08T04:02:09.056Z,70.90
2018-06-08T04:04:36.650Z,70.80
2018-06-08T04:07:04.398Z,69.80
2018-06-08T04:09:32.027Z,69.20
2018-06-08T04:11:59.565Z,69.80
2018-06-08T04:14:27.153Z,71.30
2018-06-08T04:16:54.702Z,71.10
2018-06-08T04:19:22.293Z,72.00
2018-06-08T04:21:50.678Z,73.30
2018-06-08T04:24:18.345Z,73.20
2018-06-08T04:29:13.491Z,74.20
2018-06-08T04:34:08.674Z,74.50
2018-06-08T04:36:36.335Z,74.50
2018-06-08T04:39:06.407Z,74.70
2018-06-08T04:41:34.009Z,73.70
2018-06-08T04:44:01.670Z,73.60
2018-06-08T04:46:29.210Z,72.60
2018-06-08T04:48:56.764Z,74.00
2018-06-08T04:51:24.323Z,73.40
2018-06-08T04:53:51.901Z,74.70
2018-06-08T04:56:19.517Z,74.30
2018-06-08T04:58:47.089Z,71.20
2018-06-08T05:01:14.678Z,71.70
2018-06-08T05:03:42.244Z,71.70
2018-06-08T05:06:09.780Z,71.20
2018-06-08T05:08:37.429Z,72.00
2018-06-08T05:11:05.023Z,72.80
2018-06-08T05:13:32.610Z,72.80
2018-06-08T05:18:27.754Z,73.70
2018-06-08T05:20:55.297Z,73.20
2018-06-08T05:23:22.892Z,74.00
2018-06-08T05:25:50.476Z,74.00
2018-06-08T05:28:18.174Z,75.40
2018-06-08T05:33:13.314Z,75.10
2018-06-08T05:35:40.994Z,74.70
2018-06-08T05:38:08.560Z,75.90
2018-06-08T05:40:36.127Z,76.60
2018-06-08T05:43:03.784Z,78.00
2018-06-08T05:45:31.429Z,78.10
2018-06-08T05:47:59.086Z,77.50
2018-06-08T05:50:26.693Z,77.50
2018-06-08T05:52:54.248Z,78.40
2018-06-08T05:55:21.834Z,80.90
2018-06-08T06:00:17.073Z,79.50
2018-06-08T06:02:44.659Z,80.10
2018-06-08T06:05:12.238Z,79.00
2018-06-08T06:07:39.770Z,80.20
2018-06-08T06:10:07.409Z,79.50
2018-06-08T06:12:34.995Z,80.40
2018-06-08T06:15:02.599Z,78.90
2018-06-08T06:17:30.228Z,80.70
2018-06-08T06:19:57.809Z,79.40
2018-06-08T06:22:25.365Z,77.20
2018-06-08T06:24:52.990Z,79.00
2018-06-08T06:27:20.538Z,79.30
2018-06-08T06:29:48.116Z,76.90
2018-06-08T06:32:15.697Z,77.40
2018-06-08T06:34:43.284Z,77.50
2018-06-08T06:37:10.824Z,78.00
2018-06-08T06:39:38.444Z,78.30
2018-06-08T06:42:05.984Z,78.80
2018-06-08T06:44:33.583Z,79.60
2018-06-08T06:47:01.465Z,78.00
2018-06-08T06:49:29.111Z,79.50
2018-06-08T06:51:56.644Z,81.70
2018-06-08T06:54:24.332Z,77.20
2018-06-08T06:56:51.960Z,80.50
2018-06-08T06:59:19.501Z,81.50
2018-06-08T07:01:47.108Z,81.20
2018-06-08T07:04:14.686Z,79.20
2018-06-08T07:06:42.319Z,77.40
2018-06-08T07:09:09.866Z,77.90
2018-06-08T07:11:37.460Z,79.30
2018-06-08T07:14:05.998Z,78.30
2018-06-08T07:16:33.722Z,78.40
2018-06-08T07:19:01.355Z,80.50
2018-06-08T07:21:28.935Z,78.30
2018-06-08T07:23:56.499Z,81.10
2018-06-08T07:28:51.657Z,74.70
2018-06-08T07:31:19.237Z,76.70
2018-06-08T07:33:46.805Z,77.10
2018-06-08T07:36:14.398Z,77.60
2018-06-08T07:38:41.975Z,80.60
2018-06-08T07:41:09.615Z,78.60
2018-06-08T07:43:37.176Z,78.20
2018-06-08T07:46:04.746Z,75.60
2018-06-08T07:50:59.820Z,76.90
2018-06-08T07:53:27.378Z,77.70
2018-06-08T07:55:54.959Z,79.00
2018-06-08T07:58:22.512Z,82.40
2018-06-08T08:00:50.463Z,81.80
2018-06-08T08:03:18.127Z,82.80
2018-06-08T08:05:45.693Z,80.50
2018-06-08T08:08:13.346Z,79.80
2018-06-08T08:10:40.899Z,79.80
2018-06-08T08:13:08.441Z,78.40
2018-06-08T08:15:36.123Z,78.80
2018-06-08T08:18:03.687Z,78.70
2018-06-08T08:20:31.255Z,81.20
2018-06-08T08:22:58.803Z,79.70
2018-06-08T08:25:26.397Z,79.50
2018-06-08T08:27:53.968Z,79.70
2018-06-08T08:30:21.522Z,78.70
2018-06-08T08:32:49.074Z,78.70
2018-06-08T08:35:16.613Z,78.30
2018-06-08T08:37:44.189Z,80.10
2018-06-08T08:42:39.278Z,80.90
2018-06-08T08:45:06.816Z,79.30
2018-06-08T08:47:34.490Z,79.50
2018-06-08T08:50:02.042Z,79.60
2018-06-08T08:52:29.710Z,79.10
2018-06-08T08:54:57.265Z,80.00
2018-06-08T08:57:24.837Z,78.70
2018-06-08T08:59:52.376Z,77.50
2018-06-08T09:02:20.050Z,75.70
2018-06-08T09:04:47.707Z,73.30
2018-06-08T09:07:15.299Z,72.40
2018-06-08T09:12:10.401Z,68.30
2018-06-08T09:14:37.933Z,68.50
2018-06-08T09:17:05.692Z,68.80
2018-06-08T09:19:33.231Z,69.60
2018-06-08T09:22:00.813Z,69.20
2018-06-08T09:24:28.382Z,68.20
2018-06-08T09:26:55.943Z,66.30
2018-06-08T09:29:23.472Z,68.10
2018-06-08T09:31:51.059Z,65.60
2018-06-08T09:34:18.603Z,64.50
2018-06-08T09:36:46.270Z,64.40
2018-06-08T09:39:13.800Z,64.60
2018-06-08T09:41:41.394Z,62.80
2018-06-08T09:44:08.989Z,63.00
2018-06-08T09:49:04.174Z,63.10
2018-06-08T09:51:31.835Z,64.20
2018-06-08T09:53:59.375Z,63.20
2018-06-08T09:56:27.029Z,62.90
2018-06-08T09:58:54.570Z,64.00
2018-06-08T10:01:22.172Z,64.10
2018-06-08T10:03:49.781Z,63.90
2018-06-08T10:11:12.491Z,63.10
2018-06-08T10:13:40.010Z,63.00
2018-06-08T10:16:07.562Z,63.70
2018-06-08T10:18:35.186Z,63.40
2018-06-08T10:21:03.665Z,62.90
2018-06-08T10:23:31.966Z,64.30
2018-06-08T10:25:59.531Z,64.00
2018-06-08T10:28:27.139Z,63.10
2018-06-08T10:30:54.721Z,61.40
2018-06-08T10:33:22.345Z,60.60
2018-06-08T10:35:49.981Z,61.60
2018-06-08T10:40:45.129Z,62.20
2018-06-08T10:43:12.685Z,62.30
2018-06-08T10:45:40.432Z,61.70
2018-06-08T10:48:08.017Z,61.10
2018-06-08T10:50:35.573Z,61.40
2018-06-08T10:53:03.169Z,60.50
2018-06-08T10:55:30.707Z,59.00
2018-06-08T10:57:58.381Z,59.30
2018-06-08T11:00:25.940Z,59.70
2018-06-08T11:02:53.513Z,59.50
2018-06-08T11:05:21.070Z,59.80
2018-06-08T11:07:48.646Z,60.30
2018-06-08T11:12:43.705Z,59.70
2018-06-08T11:15:11.238Z,59.50
2018-06-08T11:17:38.841Z,58.20
2018-06-08T11:20:06.746Z,60.10
2018-06-08T11:22:34.320Z,58.20
2018-06-08T11:27:29.466Z,59.20
2018-06-08T11:29:57.160Z,60.00
2018-06-08T11:32:24.714Z,59.40
2018-06-08T11:34:52.259Z,59.00
2018-06-08T11:39:47.391Z,58.30
2018-06-08T11:42:15.042Z,59.90
2018-06-08T11:44:42.888Z,61.20
2018-06-08T11:47:10.470Z,60.10
2018-06-08T11:49:38.060Z,58.20
2018-06-08T11:52:05.695Z,57.80
2018-06-08T11:54:33.355Z,58.50
2018-06-08T11:57:01.014Z,59.10
2018-06-08T11:59:28.539Z,57.50
2018-06-08T12:01:56.097Z,57.30
2018-06-08T12:04:24.040Z,58.00
2018-06-08T12:09:19.222Z,58.10
2018-06-08T12:11:46.780Z,58.70
2018-06-08T12:14:14.328Z,57.00
2018-06-08T12:16:41.859Z,56.80
2018-06-08T12:19:09.509Z,56.90
2018-06-08T12:21:37.220Z,56.60
2018-06-08T12:24:04.845Z,56.40
2018-06-08T12:26:32.489Z,59.00
2018-06-08T12:31:27.702Z,57.40
2018-06-08T12:36:22.775Z,56.10
2018-06-08T12:38:50.341Z,55.80
2018-06-08T12:41:17.875Z,56.80
2018-06-08T12:43:45.888Z,56.30
2018-06-08T12:46:13.409Z,57.60
2018-06-08T12:48:40.995Z,58.10
2018-06-08T12:51:08.537Z,57.80
2018-06-08T12:53:36.121Z,58.00
2018-06-08T12:56:03.694Z,58.20
2018-06-08T12:58:31.293Z,57.30
2018-06-08T13:00:58.847Z,56.70
2018-06-08T13:03:26.417Z,55.90
2018-06-08T13:05:53.967Z,56.10
2018-06-08T13:10:49.024Z,56.60
2018-06-08T13:13:16.584Z,56.00
2018-06-08T13:15:44.128Z,54.50
2018-06-08T13:18:11.769Z,54.80
2018-06-08T13:20:39.315Z,54.20
2018-06-08T13:23:06.860Z,55.50
2018-06-08T13:25:34.426Z,56.90
2018-06-08T13:28:01.970Z,56.80
2018-06-08T13:30:29.520Z,57.60
2018-06-08T13:32:57.064Z,57.10
2018-06-08T13:35:24.633Z,57.30
2018-06-08T13:37:52.189Z,61.50
2018-06-08T13:40:19.754Z,62.90
2018-06-08T13:42:47.285Z,60.50
2018-06-08T13:45:14.967Z,59.60
2018-06-08T13:47:42.502Z,59.10
2018-06-08T13:50:10.049Z,58.40
2018-06-08T13:52:37.579Z,59.50
2018-06-08T13:55:05.247Z,61.40
2018-06-08T13:57:32.902Z,62.50
2018-06-08T14:00:00.474Z,63.20
2018-06-08T14:02:28.047Z,59.70
2018-06-08T14:04:55.592Z,62.10
2018-06-08T14:07:23.129Z,60.10
2018-06-08T14:09:50.700Z,56.70
2018-06-08T14:12:18.281Z,57.40
2018-06-08T14:14:45.904Z,57.00
2018-06-08T14:17:13.445Z,57.20
2018-06-08T14:22:08.476Z,57.50
2018-06-08T14:24:36.074Z,57.10
2018-06-08T14:27:03.678Z,58.80
2018-06-08T14:31:58.837Z,60.80
2018-06-08T14:34:26.516Z,61.30
2018-06-08T14:36:54.066Z,58.30
2018-06-08T14:39:21.633Z,64.60
2018-06-08T14:41:49.229Z,62.80
2018-06-08T14:46:44.394Z,65.10
2018-06-08T14:49:11.977Z,63.70
2018-06-08T14:51:39.519Z,68.60
2018-06-08T14:54:07.191Z,65.20
2018-06-08T14:56:34.761Z,62.70
2018-06-08T14:59:02.383Z,63.40
2018-06-08T15:01:29.966Z,59.50
2018-06-08T15:03:57.523Z,66.00
2018-06-08T15:06:25.083Z,60.30
2018-06-08T15:08:52.642Z,61.60
2018-06-08T15:11:20.273Z,60.00
2018-06-08T15:13:47.859Z,56.70
2018-06-08T15:16:15.733Z,59.40
2018-06-08T15:18:43.311Z,54.40
2018-06-08T15:21:10.894Z,54.00
2018-06-08T15:23:38.463Z,54.80
2018-06-08T15:26:06.015Z,53.30
2018-06-08T15:31:01.209Z,52.30
2018-06-08T15:33:28.766Z,51.90
2018-06-08T15:35:56.370Z,51.50
2018-06-08T15:38:23.993Z,50.30
2018-06-08T15:40:51.539Z,50.80
2018-06-08T15:43:19.079Z,51.00
2018-06-08T15:45:46.646Z,51.50
2018-06-08T15:48:14.249Z,50.10
2018-06-08T15:50:41.774Z,50.40
2018-06-08T15:53:09.320Z,50.50
2018-06-08T15:55:36.961Z,50.40
2018-06-08T15:58:04.517Z,51.20
2018-06-08T16:00:32.095Z,49.80
2018-06-08T16:02:59.663Z,51.30
2018-06-08T16:05:27.256Z,51.60
2018-06-08T16:07:54.779Z,53.00
2018-06-08T16:10:22.448Z,53.50
2018-06-08T16:12:50.023Z,53.80
2018-06-08T16:15:17.585Z,55.90
2018-06-08T16:17:45.258Z,57.60
2018-06-08T16:22:40.444Z,54.00
2018-06-08T16:25:07.974Z,55.60
2018-06-08T16:27:35.543Z,55.90
2018-06-08T16:30:03.647Z,56.60
2018-06-08T16:34:58.693Z,56.20
2018-06-08T16:37:26.254Z,55.50
2018-06-08T16:39:53.803Z,55.50
2018-06-08T16:42:21.390Z,55.80
2018-06-08T16:44:48.909Z,56.10
2018-06-08T16:49:43.995Z,58.30
2018-06-08T16:52:11.538Z,58.90
2018-06-08T16:54:39.169Z,60.00
2018-06-08T16:57:06.759Z,61.10
2018-06-08T16:59:34.293Z,62.90
2018-06-08T17:02:01.981Z,63.40
2018-06-08T17:04:29.512Z,63.80
2018-06-08T17:06:57.132Z,63.50
2018-06-08T17:09:24.655Z,62.90
2018-06-08T17:11:52.421Z,62.90
2018-06-08T17:14:20.033Z,63.50
2018-06-08T17:16:47.609Z,62.90
2018-06-08T17:19:15.188Z,64.00
2018-06-08T17:21:42.765Z,65.00
2018-06-08T17:24:10.301Z,65.00
2018-06-08T17:26:37.966Z,64.00
2018-06-08T17:29:05.506Z,65.60
2018-06-08T17:31:33.052Z,65.30
2018-06-08T17:34:00.606Z,64.20
2018-06-08T17:36:28.177Z,65.70
2018-06-08T17:38:55.795Z,63.40
2018-06-08T17:43:50.954Z,64.10
2018-06-08T17:46:18.509Z,66.60
2018-06-08T17:48:46.074Z,67.00
2018-06-08T17:51:13.698Z,65.20
2018-06-08T17:53:41.244Z,63.20
2018-06-08T17:56:08.802Z,65.40
2018-06-08T17:58:36.403Z,66.90
2018-06-08T18:01:03.974Z,65.90
2018-06-08T18:03:31.540Z,66.50
2018-06-08T18:05:59.136Z,65.60
2018-06-08T18:08:26.708Z,66.80
2018-06-08T18:10:54.242Z,66.40
2018-06-08T18:13:21.798Z,67.10
2018-06-08T18:15:49.328Z,67.10
2018-06-08T18:18:16.922Z,69.00
2018-06-08T18:20:44.494Z,67.40
2018-06-08T18:23:12.077Z,68.50
2018-06-08T18:30:35.881Z,68.10
2018-06-08T18:35:30.999Z,67.10
2018-06-08T18:37:58.596Z,65.30
2018-06-08T18:40:26.162Z,64.80
2018-06-08T18:42:53.738Z,64.50
2018-06-08T18:45:22.813Z,61.20
2018-06-08T18:47:50.580Z,60.00
2018-06-08T18:50:18.158Z,60.00
2018-06-08T18:52:45.705Z,60.20
2018-06-08T18:55:13.265Z,59.40
2018-06-08T18:57:40.857Z,58.10
2018-06-08T19:00:08.997Z,58.20
2018-06-08T19:02:36.650Z,58.40
2018-06-08T19:05:04.233Z,59.00
2018-06-08T19:09:59.412Z,58.80
2018-06-08T19:12:26.946Z,58.70
2018-06-08T19:14:54.533Z,59.20
2018-06-08T19:17:22.134Z,59.00
2018-06-08T19:19:49.741Z,59.20
2018-06-08T19:22:17.338Z,59.40
2018-06-08T19:24:44.912Z,58.70
2018-06-08T19:27:12.552Z,59.10
2018-06-08T19:29:42.994Z,59.10
2018-06-08T19:32:10.535Z,60.00
2018-06-08T19:34:38.099Z,60.40
2018-06-08T19:37:05.646Z,59.80
2018-06-08T19:39:33.314Z,60.60
2018-06-08T19:42:00.852Z,59.50
2018-06-08T19:44:28.694Z,59.40
2018-06-08T19:49:23.937Z,59.60
2018-06-08T19:51:51.480Z,59.70
2018-06-08T19:54:19.064Z,59.70
2018-06-08T19:56:46.609Z,60.00
2018-06-08T19:59:14.173Z,60.00
2018-06-08T20:01:41.755Z,59.60
2018-06-08T20:04:09.650Z,59.80
2018-06-08T20:06:37.279Z,59.60
2018-06-08T20:09:07.061Z,60.40
2018-06-08T20:11:34.601Z,60.30
2018-06-08T20:14:02.241Z,60.50
2018-06-08T20:18:57.989Z,60.20
2018-06-08T20:26:21.725Z,60.30
2018-06-08T20:28:49.403Z,58.90
2018-06-08T20:31:16.952Z,59.10
2018-06-08T20:33:44.474Z,58.90
2018-06-08T20:36:12.038Z,58.80
2018-06-08T20:38:39.593Z,58.70
2018-06-08T20:41:07.377Z,58.50
2018-06-08T20:43:35.005Z,58.30
2018-06-08T20:46:02.629Z,58.90
2018-06-08T20:48:30.182Z,59.70
2018-06-08T20:50:57.758Z,59.50
2018-06-08T20:53:25.333Z,59.10
2018-06-08T20:55:52.911Z,58.90
2018-06-08T20:58:25.879Z,58.50
2018-06-08T21:03:20.962Z,59.60
2018-06-08T21:05:48.547Z,59.40
2018-06-08T21:08:16.165Z,59.40
2018-06-08T21:10:43.770Z,59.60
2018-06-08T21:13:11.325Z,60.10
2018-06-08T21:15:38.958Z,61.00
2018-06-08T21:18:06.543Z,60.40
2018-06-08T21:20:34.099Z,60.70
2018-06-08T21:23:01.629Z,60.60
2018-06-08T21:25:29.237Z,61.70
2018-06-08T21:30:24.386Z,60.50
2018-06-08T21:32:51.944Z,61.10
2018-06-08T21:35:19.632Z,61.10
2018-06-08T21:37:47.190Z,61.20
2018-06-08T21:40:14.766Z,60.80
2018-06-08T21:42:42.327Z,60.60
2018-06-08T21:45:09.876Z,60.30
2018-06-08T21:47:37.458Z,60.60
2018-06-08T21:50:05.109Z,60.30
2018-06-08T21:55:00.218Z,61.10
2018-06-08T21:57:27.919Z,60.70
2018-06-08T22:02:23.061Z,60.90
2018-06-08T22:04:50.618Z,60.10
2018-06-08T22:07:18.213Z,60.30
2018-06-08T22:09:45.806Z,59.70
2018-06-08T22:12:13.452Z,59.30
2018-06-08T22:14:40.997Z,59.60
2018-06-08T22:17:08.608Z,59.00
2018-06-08T22:19:36.303Z,58.50
2018-06-08T22:22:03.980Z,57.50
2018-06-08T22:24:31.574Z,57.40
2018-06-08T22:26:59.169Z,57.30
2018-06-08T22:29:26.866Z,56.30
2018-06-08T22:31:54.431Z,55.40
2018-06-08T22:34:21.978Z,56.40
2018-06-08T22:36:49.525Z,53.80
2018-06-08T22:39:17.067Z,54.20
2018-06-08T22:41:44.650Z,53.20
2018-06-08T22:44:12.414Z,52.30
2018-06-08T22:46:40.508Z,51.90
2018-06-08T22:49:08.106Z,51.80
2018-06-08T22:51:35.678Z,50.60
2018-06-08T22:54:03.257Z,50.50
2018-06-08T22:56:30.917Z,50.70
2018-06-08T22:58:58.572Z,50.80
2018-06-08T23:01:26.234Z,50.70
2018-06-08T23:03:53.896Z,51.20
2018-06-08T23:06:21.458Z,51.20
2018-06-08T23:08:49.030Z,52.00
2018-06-08T23:11:16.602Z,51.80
2018-06-08T23:16:11.893Z,51.40
2018-06-08T23:18:39.480Z,51.10
2018-06-08T23:21:07.012Z,51.30
2018-06-08T23:23:34.597Z,51.70
2018-06-08T23:28:29.729Z,51.40
2018-06-08T23:33:24.905Z,50.90
2018-06-08T23:35:52.451Z,51.30
2018-06-08T23:38:20.035Z,50.80
2018-06-08T23:40:47.596Z,50.90
2018-06-08T23:43:15.162Z,51.40
2018-06-08T23:45:42.711Z,52.20
2018-06-08T23:48:10.254Z,52.50
2018-06-08T23:50:37.788Z,52.20
2018-06-08T23:53:05.336Z,51.80
2018-06-08T23:55:32.899Z,51.00
2018-06-08T23:58:00.537Z,53.40
